Tiempo atmosférico en la estación meteorológica de Gotarrendura , Ávila (920 m.)



Fecha
DESCASC
Temp. máxima en grados centígrados (hora)
DESCASC
Temp. mínima en grados centígrados (hora)
DESCASC
Temp. media en grados centígrados
DESCASC
Racha de viento máxima en m/sg (hora)
DESCASC
Velocidad máxima media en intervalos de 10 minutos(hora)
DESCASC
Precipitaciones diarias en mm
DESCASC
Precipitaciones de 00:00 a 06:00 en mm
DESCASC
Precipitaciones de 06:00 a 12:00 en mm
DESCASC
Precipitaciones de 12:00 a 18:00 en mm
DESCASC
Precipitaciones de 18:00 a 24:00 en mm
DESCASC
19-09-2019 25.5 (15:40) 11.5 (07:30) 18.5 5.83 (14:20) 3.33 (20:20) 0 0 0 0 0
18-09-2019 23.4 (17:40) 11.1 (08:10) 17.3 5.83 (16:40) 3.61 (02:20) 0 0 0 0 0
17-09-2019 25.2 (17:00) 12.3 (00:00) 18.8 16.11 (20:00) 9.44 (20:00) 44.2 0 0 0 44.2
16-09-2019 21.8 (12:10) 14.2 (00:00) 18 7.5 (01:40) 4.17 (02:00) 2 0 0 2 0
15-09-2019 23.4 (16:20) 13.9 (00:00) 18.6 9.72 (18:00) 5.83 (18:00) 13.6 0.4 0.6 1.4 11.2
14-09-2019 22 (12:50) 12.9 (00:00) 17.4 11.11 (17:10) 7.78 (17:20) 1.6 0 0 0 1.6
13-09-2019 25.4 (14:30) 11.5 (00:00) 18.4 15.83 (15:40) 10 (15:30) 0.2 0 0 0.2 0
12-09-2019 27.5 (17:50) 7.3 (00:00) 17.4 9.17 (15:00) 6.39 (18:40) 0 0 0 0 0
11-09-2019 21.4 (18:40) 10.1 (00:00) 15.8 10.83 (12:20) 7.22 (11:30) 0 0 0 0 0
10-09-2019 17.9 (15:20) 9.6 (08:00) 13.8 13.61 (13:50) 7.5 (16:00) 0.2 0 0 0 0.2
09-09-2019 26.6 (16:10) 11.2 (08:10) 18.9 12.78 (16:00) 8.89 (17:20) 0 0 0 0 0
08-09-2019 26.2 (16:40) 7.6 (00:00) 16.9 7.5 (15:50) 4.17 (17:00) 0 0 0 0 0
07-09-2019 25.1 (17:00) 4.7 (00:00) 14.9 7.22 (18:30) 4.44 (18:30) 0 0 0 0 0
06-09-2019 22.8 (18:30) 4.4 (00:00) 13.6 8.61 (17:30) 4.72 (21:00) 0 0 0 0 0
05-09-2019 22.6 (16:20) 9.5 (00:00) 16.1 9.17 (15:00) 6.39 (18:10) 0 0 0 0 0
04-09-2019 29.9 (16:30) 13.3 (00:00) 21.6 8.89 (22:30) 5.56 (22:50) 0 0 0 0 0
03-09-2019 29 (16:40) 10.8 (00:00) 19.9 7.78 (18:00) 4.72 (17:50) 0 0 0 0 0
02-09-2019 28.1 (17:10) 11.9 (00:00) 20 7.5 (12:00) 5.28 (20:20) 0 0 0 0 0
01-09-2019 28.2 (16:10) 15.6 (00:00) 21.9 11.94 (22:00) 6.39 (22:10) 0 0 0 0 0
31-08-2019 30.8 (17:10) 16.1 (00:00) 23.4 8.89 (02:30) 5.28 (02:20) 0 0 0 0 0
30-08-2019 32.4 (15:10) 16.5 (00:00) 24.5 13.33 (15:40) 8.61 (16:00) 1.6 0 0 1.2 0.4
29-08-2019 32.1 (17:00) 15.7 (00:00) 23.9 12.78 (18:00) 6.94 (18:20) 0 0 0 0 0
28-08-2019 28.7 (17:50) 13.5 (00:00) 21.1 6.67 (18:50) 3.33 (15:50) 0 0 0 0 0
27-08-2019 24.6 (17:20) 13 (00:00) 18.8 7.22 (14:00) 4.44 (10:30) 0 0 0 0 0
26-08-2019 24.2 (14:10) 14 (00:00) 19.1 16.67 (17:10) 7.78 (17:10) 19 4.4 14.4 0.2 0
25-08-2019 32.1 (17:10) 17.8 (00:00) 24.9 12.22 (21:40) 8.33 (22:10) 3 0 0 0 3
24-08-2019 33.5 (15:50) 17 (00:00) 25.3 8.33 (16:20) 5 (16:30) 0 0 0 0 0
23-08-2019 32 (16:40) 14.2 (00:00) 23.1 11.39 (10:30) 7.5 (09:50) 0 0 0 0 0
22-08-2019 29.4 (16:00) 14.8 (00:00) 22.1 8.61 (13:50) 4.44 (03:10) 0 0 0 0 0
21-08-2019 28.9 (15:40) 12.8 (00:00) 20.8 10.56 (16:00) 7.78 (16:00) 0 0 0 0 0

Gráficas

Temp. máximas Temp. mínimas Temp. medias Precipitaciones Rachas de viento máximas Velocidades máximas media en intervalos de 10 minutos

Datos horarios

Fecha y hora oficial Temperatura (ºC) Velocidad del viento (km/h) Dirección del viento Racha (km/h) Dirección de racha Precipitación (mm) Presión (hPa) Tendencia (hPa) Humedad (%)
2019-09-19 23:00:00 17.5 5 Sudeste 14 Sur 0 -- -- 66
2019-09-19 22:00:00 18.3 6 Sur 11 Sur 0 -- -- 64
2019-09-19 21:00:00 20.1 6 Sudeste 17 Este 0 -- -- 61
2019-09-19 20:00:00 22.1 6 Este 11 Este 0 -- -- 48
2019-09-19 19:00:00 23.8 11 Este 16 Sudeste 0 -- -- 41
2019-09-19 18:00:00 25.3 6 Noroeste 19 Noroeste 0 -- -- 38
2019-09-19 17:00:00 25.3 9 Noroeste 20 Oeste 0 -- -- 40
2019-09-19 16:00:00 25.5 9 Noroeste 19 Noroeste 0 -- -- 44
2019-09-19 15:00:00 25.1 9 Noroeste 21 Noroeste 0 -- -- 43
2019-09-19 14:00:00 24.4 9 Noroeste 17 Noroeste 0 -- -- 50
2019-09-19 13:00:00 23.1 9 Norte 15 Norte 0 -- -- 50
2019-09-19 12:00:00 21.8 6 Nordeste 11 Nordeste 0 -- -- 55
2019-09-19 11:00:00 19.5 3 Nordeste 5 Nordeste 0 -- -- 67
2019-09-19 10:00:00 16.9 0 Calma 6 Sur 0 -- -- 80
2019-09-19 09:00:00 12.7 0 Calma 5 Noroeste 0 -- -- 93
2019-09-19 08:00:00 11.6 3 Sur 5 Sudeste 0 -- -- 91
2019-09-19 07:00:00 11.8 0 Calma 7 Sur 0 -- -- 90
2019-09-19 06:00:00 12.1 0 Calma 4 Sur 0 -- -- 90
2019-09-19 05:00:00 12.5 2 Sur 3 Sur 0 -- -- 89
2019-09-19 04:00:00 13.1 2 Sur 7 Sur 0 -- -- 85
2019-09-19 03:00:00 13.6 2 Sudeste 6 Sur 0 -- -- 85
2019-09-19 02:00:00 14.1 4 Sur 11 Sur 0 -- -- 83
2019-09-19 01:00:00 14.4 5 Sur 8 Sur 0 -- -- 85
2019-09-19 00:00:00 15.1 6 Sur 8 Sur 0 -- -- 84
2019-09-18 23:00:00 16 3 Sur 6 Sur 0 -- -- 81
2019-09-18 22:00:00 17.6 3 Sur 4 Sudoeste 0 -- -- 75
2019-09-18 21:00:00 19.3 3 Sudoeste 7 Oeste 0 -- -- 70
2019-09-18 20:00:00 21.5 5 Oeste 12 Sudoeste 0 -- -- 62
2019-09-18 19:00:00 22.8 6 Oeste 12 Noroeste 0 -- -- 45
2019-09-18 18:00:00 23 6 Noroeste 15 Oeste 0 -- -- 49
2019-09-18 17:00:00 23.1 8 Noroeste 21 Noroeste 0 -- -- 48
2019-09-18 16:00:00 22.9 9 Noroeste 20 Noroeste 0 -- -- 51
2019-09-18 15:00:00 22.4 8 Noroeste 17 Oeste 0 -- -- 53
2019-09-18 14:00:00 21.4 5 Noroeste 13 Oeste 0 -- -- 58
2019-09-18 13:00:00 20.1 5 Nordeste 14 Norte 0 -- -- 60
2019-09-18 12:00:00 18.2 6 Norte 12 Norte 0 -- -- 69
2019-09-18 11:00:00 16.8 0 Calma 6 Norte 0 -- -- 73
2019-09-18 10:00:00 14.5 2 Este 6 Norte 0 -- -- 82
2019-09-18 09:00:00 11.9 0 Calma 8 Sudeste 0 -- -- 95
2019-09-18 08:00:00 11.3 4 Sudeste 7 Sudeste 0 -- -- 96
2019-09-18 07:00:00 11.6 4 Sur 6 Sur 0 -- -- 96
2019-09-18 06:00:00 11.8 3 Sudeste 7 Nordeste 0 -- -- 95
2019-09-18 05:00:00 12.1 3 Nordeste 12 Norte 0 -- -- 91
2019-09-18 04:00:00 13.2 4 Sur 16 Sudoeste 0 -- -- 89
2019-09-18 03:00:00 13.5 3 Sur 18 Este 0 -- -- 85
2019-09-18 02:00:00 13.3 12 Este 18 Nordeste 0 -- -- 85
2019-09-18 01:00:00 13 12 Nordeste 17 Nordeste 0 -- -- 88
2019-09-18 00:00:00 13.5 8 Sudeste 12 Sudeste 0 -- -- 85
2019-09-17 23:00:00 13.4 10 Sudoeste 15 Sudoeste 0 -- -- 88
2019-09-17 22:00:00 13.7 11 Sudoeste 37 Sudoeste 0.2 -- -- 88
2019-09-17 21:00:00 13.9 28 Sudoeste 54 Oeste 31.8 -- -- 91
2019-09-15 18:00:00 -- -- -- -- -- -- -- -- --
2019-09-15 17:00:00 -- -- -- -- -- -- -- -- --
2019-09-15 16:00:00 22.2 7 Norte 25 Nordeste 0 -- -- 56
2019-09-15 15:00:00 21.6 12 Norte 19 Nordeste 0 -- -- 63
2019-09-15 14:00:00 21.4 7 Este 13 Este 0 -- -- 62
2019-09-15 13:00:00 20.1 3 Norte 9 Norte 0 -- -- 77
2019-09-15 12:00:00 17.1 6 Norte 14 Norte 0 -- -- 86
2019-09-15 11:00:00 16.8 5 Nordeste 10 Este 0 -- -- 83
2019-09-15 10:00:00 16.1 0 Calma 6 Sur 0 -- -- 86
2019-09-15 09:00:00 15.6 0 Calma 22 Este 0 -- -- 89
2019-09-15 08:00:00 14.6 3 Sudeste 7 Oeste 0 -- -- 92
2019-09-15 07:00:00 14.6 4 Nordeste 13 Nordeste 0.6 -- -- 92
2019-09-15 06:00:00 14.5 3 Este 6 Nordeste 0.4 -- -- 92
2019-09-15 05:00:00 14.6 0 Calma 5 Norte 0 -- -- 91
2019-09-15 04:00:00 14.4 4 Nordeste 7 Nordeste 0 -- -- 94
2019-09-15 03:00:00 14 0 Calma 5 Oeste 0 -- -- 92
2019-09-15 02:00:00 14.4 2 Sudeste 8 Este 0 -- -- 88
2019-09-15 01:00:00 15.3 5 Este 9 Este 0 -- -- 86
2019-09-15 00:00:00 15.3 5 Este 11 Este 0 -- -- 87
2019-09-14 23:00:00 15.3 5 Este 14 Este 1 -- -- 86
2019-09-14 22:00:00 16.2 10 Este 23 Este 0.6 -- -- 80
2019-09-14 21:00:00 17.8 12 Sudeste 30 Sudeste 0 -- -- 64
2019-09-14 20:00:00 18.9 21 Sudeste 32 Sudeste 0 -- -- 58
2019-09-14 19:00:00 19.2 13 Este 36 Sudeste 0 -- -- 58
2019-09-14 18:00:00 18.9 19 Sudeste 40 Este 0 -- -- 61
2019-09-14 17:00:00 20.6 27 Sudeste 40 Sudeste 0 -- -- 52
2019-09-14 16:00:00 20.8 16 Este 30 Este 0 -- -- 52
2019-09-14 15:00:00 21 17 Este 38 Sudeste 0 -- -- 52
2019-09-14 14:00:00 20.6 25 Sudeste 40 Sudeste 0 -- -- 52
2019-09-14 13:00:00 21.8 21 Sudeste 33 Sudeste 0 -- -- 46
2019-09-14 12:00:00 21.6 17 Nordeste 26 Este 0 -- -- 47
2019-09-14 11:00:00 20 7 Este 17 Nordeste 0 -- -- 58
2019-09-14 10:00:00 17 2 Oeste 8 Oeste 0 -- -- 75
2019-09-14 09:00:00 14.1 0 Calma 4 Norte 0 -- -- 87
2019-09-14 08:00:00 13.6 4 Nordeste 6 Este 0 -- -- 87
2019-09-14 07:00:00 13.2 0 Calma 6 Noroeste 0 -- -- 85
2019-09-14 06:00:00 -- -- -- -- -- -- -- -- --
2019-09-14 05:00:00 -- -- -- -- -- -- -- -- --
2019-09-14 04:00:00 14.1 5 Este 10 Sudeste 0 -- -- 83
2019-09-14 03:00:00 14.1 8 Sudeste 11 Sudeste 0 -- -- 84
2019-09-14 02:00:00 13.9 4 Norte 9 Nordeste 0 -- -- 83
2019-09-14 01:00:00 14.3 7 Nordeste 16 Nordeste 0 -- -- 80
2019-09-14 00:00:00 15.2 8 Nordeste 14 Este 0 -- -- 79
2019-09-13 23:00:00 15.5 9 Este 18 Este 0 -- -- 76
2019-09-13 22:00:00 16.8 13 Este 26 Sudeste 0 -- -- 71
2019-09-13 21:00:00 17.1 6 Este 30 Este 0 -- -- 68
2019-09-13 20:00:00 18.4 19 Este 32 Este 0 -- -- 64
2019-09-13 19:00:00 17.5 12 Nordeste 24 Nordeste 0 -- -- 69
2019-09-13 18:00:00 16.7 17 Nordeste 32 Este 0.2 -- -- 74
2019-09-13 17:00:00 18.7 22 Este 48 Este 0 -- -- 59
2019-09-13 16:00:00 19.4 30 Sudeste 57 Sudeste 0 -- -- 49
2019-09-13 15:00:00 24.2 24 Este 38 Este 0 -- -- 32
2019-09-13 14:00:00 24.8 12 Este 22 Este 0 -- -- 30
2019-09-13 13:00:00 22.5 6 Nordeste 12 Este 0 -- -- 37
2019-09-13 12:00:00 21.5 8 Nordeste 14 Norte 0 -- -- 41
2019-09-13 11:00:00 19.6 3 Nordeste 13 Noroeste 0 -- -- 50
2019-09-13 10:00:00 16.8 5 Norte 16 Noroeste 0 -- -- 59
2019-09-13 09:00:00 13.8 3 Sur 11 Sur 0 -- -- 70
2019-09-13 08:00:00 11.5 5 Sudoeste 8 Sudoeste 0 -- -- 74
2019-09-13 07:00:00 12.5 4 Sur 6 Sur 0 -- -- 70
2019-09-13 06:00:00 13.9 0 Calma 10 Noroeste 0 -- -- 65
2019-09-13 05:00:00 16.9 8 Este 24 Sudeste 0 -- -- 56
2019-09-13 04:00:00 17.6 13 Sudeste 23 Sudeste 0 -- -- 55
2019-09-13 03:00:00 18.6 13 Sudeste 30 Sudeste 0 -- -- 52
2019-09-13 02:00:00 19 18 Sudeste 30 Este 0 -- -- 52
2019-09-13 01:00:00 17 5 Sur 15 Sudeste 0 -- -- 60
2019-09-13 00:00:00 17.1 8 Sudeste 13 Sudeste 0 -- -- 59
2019-09-12 23:00:00 18.6 8 Sudeste 14 Sur 0 -- -- 54
2019-09-12 22:00:00 19.9 4 Sur 21 Sudeste 0 -- -- 50
2019-09-12 21:00:00 21.3 7 Sur 23 Sudeste 0 -- -- 47
2019-09-12 20:00:00 24 14 Este 30 Este 0 -- -- 40
2019-09-12 19:00:00 25.2 23 Este 33 Este 0 -- -- 37
2019-09-12 18:00:00 27.2 15 Nordeste 31 Nordeste 0 -- -- 31
2019-09-12 17:00:00 26.7 13 Norte 26 Nordeste 0 -- -- 32
2019-09-12 16:00:00 26.4 17 Este 31 Nordeste 0 -- -- 33
2019-09-12 15:00:00 25.8 13 Nordeste 33 Nordeste 0 -- -- 34
2019-09-12 14:00:00 23.9 12 Nordeste 22 Nordeste 0 -- -- 38
2019-09-12 13:00:00 21.4 11 Norte 20 Norte 0 -- -- 45
2019-09-12 12:00:00 18.2 5 Norte 11 Sudoeste 0 -- -- 53
2019-09-12 11:00:00 14.2 4 Oeste 10 Oeste 0 -- -- 67
2019-09-12 10:00:00 11.7 6 Noroeste 13 Oeste 0 -- -- 77
2019-09-12 09:00:00 9 4 Sur 8 Sur 0 -- -- 82
2019-09-12 08:00:00 7.3 3 Sudoeste 11 Sur 0 -- -- 85
2019-09-12 07:00:00 7.6 3 Sur 8 Sur 0 -- -- 84
2019-09-12 06:00:00 7.5 5 Sudoeste 8 Sur 0 -- -- 83
2019-09-12 05:00:00 8.1 0 Calma 7 Sur 0 -- -- 79
2019-09-12 04:00:00 9 3 Sur 8 Sur 0 -- -- 78
2019-09-12 03:00:00 9.9 4 Sur 12 Sudoeste 0 -- -- 75
2019-09-12 02:00:00 10.4 5 Sudoeste 10 Sudoeste 0 -- -- 71
2019-09-12 01:00:00 11.5 3 Sudoeste 8 Sur 0 -- -- 70
2019-09-12 00:00:00 12.3 2 Norte 5 Noroeste 0 -- -- 67
2019-09-11 23:00:00 14.3 0 Calma 13 Nordeste 0 -- -- 62
2019-09-11 22:00:00 15.8 9 Nordeste 21 Norte 0 -- -- 56
2019-09-11 21:00:00 17.9 9 Norte 25 Norte 0 -- -- 50
2019-09-11 20:00:00 19.7 18 Norte 28 Norte 0 -- -- 46
2019-09-11 19:00:00 21 15 Norte 26 Norte 0 -- -- 42
2019-09-11 18:00:00 21 15 Norte 30 Norte 0 -- -- 42
2019-09-11 17:00:00 21.3 15 Norte 36 Norte 0 -- -- 41
2019-09-11 16:00:00 20.6 18 Norte 34 Norte 0 -- -- 43
2019-09-11 15:00:00 20.4 21 Norte 38 Norte 0 -- -- 43
2019-09-11 14:00:00 19.2 20 Norte 36 Nordeste 0 -- -- 46
2019-09-11 13:00:00 17.9 21 Nordeste 39 Nordeste 0 -- -- 48
2019-09-11 12:00:00 17.1 23 Nordeste 38 Nordeste 0 -- -- 52
2019-09-11 11:00:00 14.6 23 Nordeste 33 Nordeste 0 -- -- 63
2019-09-11 10:00:00 12.3 15 Norte 24 Norte 0 -- -- 71
2019-09-11 09:00:00 11.1 7 Noroeste 15 Noroeste 0 -- -- 72
2019-09-11 08:00:00 10.5 6 Norte 15 Norte 0 -- -- 75
2019-09-11 07:00:00 11.1 9 Norte 22 Norte 0 -- -- 75
2019-09-11 06:00:00 11 14 Norte 27 Norte 0 -- -- 75
2019-09-11 05:00:00 10.5 17 Noroeste 33 Noroeste 0 -- -- 78
2019-09-11 04:00:00 10.4 12 Noroeste 24 Noroeste 0 -- -- 78
2019-09-11 03:00:00 10.3 8 Noroeste 21 Noroeste 0 -- -- 77
2019-09-11 02:00:00 10.5 14 Noroeste 21 Noroeste 0 -- -- 77
2019-09-11 01:00:00 11 15 Norte 23 Norte 0 -- -- 76
2019-09-11 00:00:00 11.7 7 Norte 27 Nordeste 0 -- -- 73
2019-09-10 23:00:00 12.2 13 Norte 24 Nordeste 0 -- -- 72
2019-09-10 22:00:00 12.6 8 Este 19 Nordeste 0.2 -- -- 74
2019-09-10 21:00:00 13.3 12 Nordeste 25 Nordeste 0 -- -- 60
2019-09-10 20:00:00 13.9 21 Nordeste 41 Noroeste 0 -- -- 56
2019-09-10 19:00:00 16.4 23 Noroeste 38 Noroeste 0 -- -- 43
2019-09-10 18:00:00 16.6 19 Noroeste 37 Noroeste 0 -- -- 41
2019-09-10 17:00:00 16.9 22 Noroeste 43 Noroeste 0 -- -- 38
2019-09-10 16:00:00 17.1 27 Noroeste 46 Noroeste 0 -- -- 38
2019-09-10 15:00:00 17.4 19 Noroeste 45 Noroeste 0 -- -- 38
2019-09-10 14:00:00 16.6 20 Noroeste 49 Noroeste 0 -- -- 39
2019-09-10 13:00:00 15.2 23 Noroeste 45 Noroeste 0 -- -- 42
2019-09-10 12:00:00 14.3 18 Noroeste 36 Oeste 0 -- -- 45
2019-09-10 11:00:00 13 14 Noroeste 29 Noroeste 0 -- -- 52
2019-09-10 10:00:00 11.1 14 Noroeste 26 Noroeste 0 -- -- 60
2019-09-10 09:00:00 10 9 Noroeste 21 Noroeste 0 -- -- 64
2019-09-10 08:00:00 9.6 12 Noroeste 32 Noroeste 0 -- -- 64
2019-09-10 07:00:00 11 18 Noroeste 29 Noroeste 0 -- -- 60
2019-09-10 06:00:00 11.3 14 Noroeste 27 Noroeste 0 -- -- 63
2019-09-10 05:00:00 12.3 15 Noroeste 26 Noroeste 0 -- -- 66
2019-09-10 04:00:00 12.5 14 Noroeste 26 Oeste 0 -- -- 66
2019-09-10 03:00:00 14.1 15 Noroeste 31 Noroeste 0 -- -- 57
2019-09-10 02:00:00 13.6 10 Oeste 19 Oeste 0 -- -- 54
2019-09-10 01:00:00 15.8 14 Noroeste 30 Norte 0 -- -- 47
2019-09-10 00:00:00 16.5 16 Oeste 24 Oeste 0 -- -- 43
2019-09-09 23:00:00 18.3 18 Oeste 24 Oeste 0 -- -- 34
2019-09-09 22:00:00 19.3 14 Oeste 18 Oeste 0 -- -- 33
2019-09-09 21:00:00 21.1 14 Oeste 32 Oeste 0 -- -- 29
2019-09-09 20:00:00 22.4 26 Oeste 42 Oeste 0 -- -- 26
2019-09-09 19:00:00 23.7 27 Oeste 41 Oeste 0 -- -- 23
2019-09-09 18:00:00 24.6 28 Oeste 46 Oeste 0 -- -- 23
2019-09-09 17:00:00 25.9 31 Oeste 43 Oeste 0 -- -- 22
2019-09-09 16:00:00 26.2 26 Oeste 46 Oeste 0 -- -- 23
2019-09-09 15:00:00 26 27 Oeste 41 Oeste 0 -- -- 23
2019-09-09 14:00:00 24.9 23 Oeste 39 Oeste 0 -- -- 25
2019-09-09 13:00:00 24.3 17 Oeste 33 Oeste 0 -- -- 30
2019-09-09 12:00:00 22.8 19 Oeste 31 Oeste 0 -- -- 32
2019-09-09 11:00:00 20.5 20 Oeste 28 Oeste 0 -- -- 36
2019-09-09 10:00:00 18.4 0 Calma 5 Norte 0 -- -- 43
2019-09-09 09:00:00 14.1 2 Sudeste 6 Sudeste 0 -- -- 51
2019-09-09 08:00:00 11.6 2 Nordeste 9 Sudeste 0 -- -- 55
2019-09-09 07:00:00 12.4 3 Sur 12 Sudoeste 0 -- -- 52
2019-09-09 06:00:00 12.2 5 Sur 10 Sur 0 -- -- 52
2019-09-09 05:00:00 12.4 8 Sur 11 Sudoeste 0 -- -- 52
2019-09-09 04:00:00 11.8 5 Sur 9 Sur 0 -- -- 54
2019-09-09 03:00:00 12.1 3 Sur 9 Sur 0 -- -- 52
2019-09-09 02:00:00 12.1 7 Sudoeste 9 Sur 0 -- -- 52
2019-09-09 01:00:00 13.3 4 Nordeste 7 Sur 0 -- -- 48
2019-09-09 00:00:00 15.2 5 Sudoeste 10 Nordeste 0 -- -- 43
2019-09-08 23:00:00 16.5 7 Sudoeste 10 Sudoeste 0 -- -- 41
2019-09-08 22:00:00 18.8 3 Sudoeste 10 Oeste 0 -- -- 37
2019-09-08 21:00:00 21.5 4 Noroeste 17 Oeste 0 -- -- 31
2019-09-08 20:00:00 24.3 10 Noroeste 20 Oeste 0 -- -- 28
2019-09-08 19:00:00 25 9 Noroeste 24 Oeste 0 -- -- 29
2019-09-08 18:00:00 25.7 9 Noroeste 23 Oeste 0 -- -- 29
2019-09-08 17:00:00 25.7 15 Noroeste 27 Norte 0 -- -- 30
2019-09-08 16:00:00 25.9 13 Oeste 27 Oeste 0 -- -- 30
2019-09-08 15:00:00 25.3 9 Noroeste 21 Noroeste 0 -- -- 33
2019-09-08 14:00:00 24 5 Norte 17 Norte 0 -- -- 37
2019-09-08 13:00:00 22.7 9 Norte 18 Norte 0 -- -- 42
2019-09-08 12:00:00 21 6 Norte 16 Norte 0 -- -- 46
2019-09-08 11:00:00 18.4 6 Nordeste 10 Nordeste 0 -- -- 48
2019-09-08 10:00:00 14.4 4 Nordeste 8 Nordeste 0 -- -- 54
2019-09-08 09:00:00 11.2 4 Este 9 Nordeste 0 -- -- 64
2019-09-08 08:00:00 8.1 3 Nordeste 10 Este 0 -- -- 68
2019-09-08 07:00:00 7.9 3 Sur 4 Sudeste 0 -- -- 72
2019-09-08 06:00:00 8 2 Sur 5 Sudoeste 0 -- -- 68
2019-09-08 05:00:00 8.7 2 Sur 6 Sudoeste 0 -- -- 63
2019-09-08 04:00:00 9.4 4 Sur 8 Sudoeste 0 -- -- 61
2019-09-08 03:00:00 10.1 3 Sur 6 Sudoeste 0 -- -- 57
2019-09-08 02:00:00 11 4 Sudoeste 7 Sudoeste 0 -- -- 53
2019-09-08 01:00:00 12.2 2 Oeste 5 Sudoeste 0 -- -- 49
2019-09-08 00:00:00 14.3 2 Norte 6 Sudoeste 0 -- -- 44
2019-09-07 23:00:00 15.7 2 Este 10 Nordeste 0 -- -- 39
2019-09-07 22:00:00 17.5 2 Oeste 7 Norte 0 -- -- 33
2019-09-07 21:00:00 20.5 6 Norte 17 Norte 0 -- -- 26
2019-09-07 20:00:00 22.8 12 Norte 21 Norte 0 -- -- 23
2019-09-07 19:00:00 24 12 Norte 26 Norte 0 -- -- 23
2019-09-07 18:00:00 24.4 12 Norte 21 Norte 0 -- -- 25
2019-09-07 17:00:00 25.1 6 Noroeste 22 Norte 0 -- -- 24
2019-09-07 16:00:00 24.6 12 Norte 21 Norte 0 -- -- 26
2019-09-07 15:00:00 23.3 10 Norte 22 Nordeste 0 -- -- 29
2019-09-07 14:00:00 21.9 13 Norte 20 Norte 0 -- -- 32
2019-09-07 13:00:00 19.6 10 Nordeste 18 Norte 0 -- -- 37
2019-09-07 12:00:00 17.1 9 Norte 16 Norte 0 -- -- 44
2019-09-07 11:00:00 14.1 7 Nordeste 13 Norte 0 -- -- 53
2019-09-07 10:00:00 11 4 Nordeste 6 Norte 0 -- -- 63
2019-09-07 09:00:00 7.3 2 Sudoeste 4 Sur 0 -- -- 75
2019-09-07 08:00:00 4.8 3 Sudoeste 5 Sudoeste 0 -- -- 80
2019-09-07 07:00:00 4.8 0 Calma 4 Sudoeste 0 -- -- 79
2019-09-07 06:00:00 5.3 4 Norte 5 Norte 0 -- -- 77
2019-09-07 05:00:00 6.3 3 Este 5 Este 0 -- -- 75
2019-09-07 04:00:00 7.1 3 Sur 7 Sur 0 -- -- 70
2019-09-07 03:00:00 8.1 2 Sudoeste 4 Sudoeste 0 -- -- 67
2019-09-07 02:00:00 9.6 2 Norte 6 Norte 0 -- -- 64
2019-09-07 01:00:00 11 3 Nordeste 11 Nordeste 0 -- -- 60
2019-09-07 00:00:00 12.1 5 Norte 14 Nordeste 0 -- -- 55
2019-09-06 23:00:00 14.1 9 Nordeste 22 Nordeste 0 -- -- 46
2019-09-06 22:00:00 16 8 Nordeste 28 Norte 0 -- -- 41
2019-09-06 21:00:00 18.8 17 Norte 26 Norte 0 -- -- 36
2019-09-06 20:00:00 21.3 15 Norte 25 Norte 0 -- -- 25
2019-09-06 19:00:00 22.2 13 Norte 23 Nordeste 0 -- -- 26
2019-09-06 18:00:00 22.6 9 Norte 31 Norte 0 -- -- 25
2019-09-06 17:00:00 22.4 5 Norte 21 Norte 0 -- -- 28
2019-09-06 16:00:00 21.6 11 Norte 24 Norte 0 -- -- 29
2019-09-06 15:00:00 20.1 9 Nordeste 22 Norte 0 -- -- 34
2019-09-06 14:00:00 18.6 9 Nordeste 23 Nordeste 0 -- -- 37
2019-09-06 13:00:00 16.8 9 Norte 22 Norte 0 -- -- 48
2019-09-06 12:00:00 15.1 10 Norte 17 Norte 0 -- -- 53
2019-09-06 11:00:00 13 5 Noroeste 11 Norte 0 -- -- 61
2019-09-06 10:00:00 11.2 3 Norte 7 Norte 0 -- -- 69
2019-09-06 09:00:00 7.3 4 Sudoeste 7 Sur 0 -- -- 80
2019-09-06 08:00:00 4.4 5 Sudoeste 7 Sur 0 -- -- 87
2019-09-06 07:00:00 5 4 Sur 7 Sudoeste 0 -- -- 84
2019-09-06 06:00:00 5.8 4 Sur 7 Sudoeste 0 -- -- 83
2019-09-06 05:00:00 6.7 4 Sudoeste 9 Sudoeste 0 -- -- 79
2019-09-06 04:00:00 7.5 2 Oeste 9 Sur 0 -- -- 78
2019-09-06 03:00:00 8.8 2 Sudoeste 6 Sudoeste 0 -- -- 72
2019-09-06 02:00:00 10 2 Norte 8 Norte 0 -- -- 70
2019-09-06 01:00:00 11.1 4 Nordeste 12 Nordeste 0 -- -- 66
2019-09-06 00:00:00 12.3 9 Nordeste 14 Nordeste 0 -- -- 60
2019-09-05 23:00:00 13.5 10 Nordeste 22 Norte 0 -- -- 59
2019-09-05 22:00:00 15.1 16 Norte 30 Norte 0 -- -- 55
2019-09-05 21:00:00 16.6 20 Norte 33 Norte 0 -- -- 49
2019-09-05 20:00:00 19.3 22 Norte 30 Norte 0 -- -- 37
2019-09-05 19:00:00 20.7 21 Norte 33 Nordeste 0 -- -- 31
2019-09-05 18:00:00 22 18 Norte 32 Nordeste 0 -- -- 32
2019-09-05 17:00:00 22.3 20 Norte 32 Nordeste 0 -- -- 29
2019-09-05 16:00:00 22.4 20 Nordeste 33 Nordeste 0 -- -- 24
2019-09-05 15:00:00 22 21 Norte 33 Norte 0 -- -- 33
2019-09-05 14:00:00 21.4 16 Norte 32 Nordeste 0 -- -- 41
2019-09-05 13:00:00 19.8 18 Norte 30 Norte 0 -- -- 47
2019-09-05 12:00:00 18.2 20 Nordeste 29 Nordeste 0 -- -- 55
2019-09-05 11:00:00 15.7 15 Nordeste 27 Nordeste 0 -- -- 68
2019-09-05 10:00:00 13.9 17 Nordeste 24 Nordeste 0 -- -- 71
2019-09-05 09:00:00 12.1 3 Norte 6 Noroeste 0 -- -- 73
2019-09-05 08:00:00 9.5 3 Sudoeste 7 Sudoeste 0 -- -- 81
2019-09-05 07:00:00 10.2 4 Sudoeste 7 Sudoeste 0 -- -- 82
2019-09-05 06:00:00 10.5 4 Sudoeste 8 Sudoeste 0 -- -- 80
2019-09-05 05:00:00 11.6 0 Calma 5 Norte 0 -- -- 78
2019-09-05 04:00:00 12.4 4 Norte 13 Norte 0 -- -- 76
2019-09-05 03:00:00 13.5 6 Norte 13 Norte 0 -- -- 72
2019-09-05 02:00:00 14.8 9 Norte 14 Norte 0 -- -- 67
2019-09-05 01:00:00 16.4 8 Norte 13 Nordeste 0 -- -- 58
2019-09-05 00:00:00 17.9 4 Nordeste 26 Nordeste 0 -- -- 52
2019-09-04 23:00:00 20.2 15 Nordeste 32 Nordeste 0 -- -- 46
2019-09-04 22:00:00 22 11 Nordeste 26 Norte 0 -- -- 35
2019-09-04 21:00:00 25.2 6 Noroeste 14 Noroeste 0 -- -- 25
2019-09-04 20:00:00 28.2 11 Noroeste 19 Noroeste 0 -- -- 21
2019-09-04 19:00:00 29.1 10 Noroeste 19 Oeste 0 -- -- 19
2019-09-04 18:00:00 29.3 7 Norte 24 Noroeste 0 -- -- 19
2019-09-04 17:00:00 29.7 7 Noroeste 23 Noroeste 0 -- -- 21
2019-09-04 16:00:00 29.6 6 Oeste 24 Norte 0 -- -- 21
2019-09-04 15:00:00 29.5 9 Noroeste 19 Norte 0 -- -- 21
2019-09-04 14:00:00 28.8 9 Norte 18 Norte 0 -- -- 25
2019-09-04 13:00:00 27.9 5 Noroeste 13 Norte 0 -- -- 27
2019-09-04 12:00:00 26.1 5 Noroeste 10 Oeste 0 -- -- 31
2019-09-04 11:00:00 23.1 5 Oeste 12 Oeste 0 -- -- 36
2019-09-04 10:00:00 20.4 6 Oeste 13 Oeste 0 -- -- 41
2019-09-04 09:00:00 16.1 5 Sur 8 Sur 0 -- -- 54
2019-09-04 08:00:00 13.8 7 Sudoeste 11 Sur 0 -- -- 58
2019-09-04 07:00:00 14.1 0 Calma 8 Sudeste 0 -- -- 57
2019-09-04 06:00:00 14.9 4 Sur 8 Sur 0 -- -- 56
2019-09-04 05:00:00 15.1 4 Sur 7 Sur 0 -- -- 55
2019-09-04 04:00:00 15.1 4 Sur 8 Sur 0 -- -- 56
2019-09-04 03:00:00 15.8 3 Sur 9 Sur 0 -- -- 52
2019-09-04 02:00:00 16.3 4 Sur 14 Sur 0 -- -- 51
2019-09-04 01:00:00 17.3 6 Sur 10 Sudoeste 0 -- -- 49
2019-09-04 00:00:00 18 6 Sur 10 Sur 0 -- -- 47
2019-09-03 23:00:00 19 7 Sudoeste 8 Sur 0 -- -- 44
2019-09-03 22:00:00 21.2 4 Sur 7 Noroeste 0 -- -- 38
2019-09-03 21:00:00 24.3 6 Noroeste 17 Noroeste 0 -- -- 32
2019-09-03 20:00:00 27.1 8 Noroeste 24 Noroeste 0 -- -- 27
2019-09-03 19:00:00 28.1 13 Noroeste 27 Oeste 0 -- -- 28
2019-09-03 18:00:00 28.7 14 Noroeste 28 Noroeste 0 -- -- 28
2019-09-03 17:00:00 28.9 14 Noroeste 26 Noroeste 0 -- -- 29
2019-09-03 16:00:00 28.6 10 Noroeste 22 Noroeste 0 -- -- 29
2019-09-03 15:00:00 27.5 8 Noroeste 15 Oeste 0 -- -- 31
2019-09-03 14:00:00 25.8 7 Noroeste 13 Norte 0 -- -- 36
2019-09-03 13:00:00 22.9 7 Noroeste 13 Norte 0 -- -- 43
2019-09-03 12:00:00 20 6 Noroeste 11 Norte 0 -- -- 49
2019-09-03 11:00:00 17.5 4 Noroeste 9 Noroeste 0 -- -- 57
2019-09-03 10:00:00 15.8 0 Calma 5 Noroeste 0 -- -- 62
2019-09-03 09:00:00 12.4 3 Oeste 5 Oeste 0 -- -- 73
2019-09-03 08:00:00 10.8 2 Sudoeste 5 Oeste 0 -- -- 79
2019-09-03 07:00:00 11.1 0 Calma 3 Oeste 0 -- -- 75
2019-09-03 06:00:00 11.5 0 Calma 4 Sur 0 -- -- 73
2019-09-03 05:00:00 12.6 4 Sur 6 Sur 0 -- -- 69
2019-09-03 04:00:00 13 0 Calma 5 Noroeste 0 -- -- 67
2019-09-03 03:00:00 14 0 Calma 5 Nordeste 0 -- -- 63
2019-09-03 02:00:00 15 0 Calma 5 Norte 0 -- -- 58
2019-09-03 01:00:00 16.1 5 Norte 12 Norte 0 -- -- 55
2019-09-03 00:00:00 17.6 6 Norte 9 Nordeste 0 -- -- 48
2019-09-02 23:00:00 19.2 0 Calma 12 Nordeste 0 -- -- 45
2019-09-02 22:00:00 21.1 11 Nordeste 22 Nordeste 0 -- -- 39
2019-09-02 21:00:00 23.3 15 Nordeste 27 Norte 0 -- -- 37
2019-09-02 20:00:00 25.8 18 Norte 25 Nordeste 0 -- -- 36
2019-09-02 19:00:00 26.8 17 Norte 25 Nordeste 0 -- -- 36
2019-09-02 18:00:00 27.3 12 Norte 25 Nordeste 0 -- -- 36
2019-09-02 17:00:00 27.9 14 Nordeste 24 Nordeste 0 -- -- 36
2019-09-02 16:00:00 27.2 10 Nordeste 21 Nordeste 0 -- -- 39
2019-09-02 15:00:00 26.1 12 Nordeste 24 Nordeste 0 -- -- 42
2019-09-02 14:00:00 24.5 15 Nordeste 26 Norte 0 -- -- 46
2019-09-02 13:00:00 22.6 15 Nordeste 24 Norte 0 -- -- 51
2019-09-02 12:00:00 20.7 11 Norte 27 Norte 0 -- -- 58
2019-09-02 11:00:00 17.3 9 Nordeste 14 Nordeste 0 -- -- 70
2019-09-02 10:00:00 15 8 Este 13 Nordeste 0 -- -- 79
2019-09-02 09:00:00 13.3 6 Nordeste 10 Nordeste 0 -- -- 86
2019-09-02 08:00:00 12.1 5 Norte 9 Norte 0 -- -- 90
2019-09-02 07:00:00 11.9 3 Norte 4 Norte 0 -- -- 87
2019-09-02 06:00:00 13.4 0 Calma 9 Norte 0 -- -- 83
2019-09-02 05:00:00 14.1 7 Norte 13 Norte 0 -- -- 83
2019-09-02 04:00:00 15 10 Norte 13 Norte 0 -- -- 78
2019-09-02 03:00:00 15.9 7 Norte 11 Norte 0 -- -- 75
2019-09-02 02:00:00 16.3 5 Norte 7 Norte 0 -- -- 70
2019-09-02 01:00:00 17.5 3 Este 18 Nordeste 0 -- -- 63
2019-09-02 00:00:00 18.5 8 Nordeste 29 Nordeste 0 -- -- 60
2019-09-01 23:00:00 20.2 19 Nordeste 33 Nordeste 0 -- -- 56
2019-09-01 22:00:00 22 19 Nordeste 43 Nordeste 0 -- -- 53
2019-09-01 21:00:00 24.1 7 Norte 18 Noroeste 0 -- -- 45
2019-09-01 20:00:00 26.3 14 Norte 23 Norte 0 -- -- 40
2019-09-01 19:00:00 26.8 10 Noroeste 22 Noroeste 0 -- -- 40
2019-09-01 18:00:00 26.9 8 Noroeste 24 Noroeste 0 -- -- 39
2019-09-01 17:00:00 27.1 16 Norte 28 Noroeste 0 -- -- 40
2019-09-01 16:00:00 27.9 12 Noroeste 25 Noroeste 0 -- -- 40
2019-09-01 15:00:00 26.3 13 Noroeste 23 Oeste 0 -- -- 45
2019-09-01 14:00:00 27 8 Noroeste 20 Noroeste 0 -- -- 44
2019-09-01 13:00:00 25 8 Noroeste 21 Oeste 0 -- -- 49
2019-09-01 12:00:00 23.9 8 Oeste 15 Oeste 0 -- -- 53
2019-09-01 11:00:00 23.2 9 Noroeste 23 Noroeste 0 -- -- 51
2019-09-01 10:00:00 22.2 12 Noroeste 24 Noroeste 0 -- -- 53
2019-09-01 09:00:00 18.3 3 Sur 12 Sudeste 0 -- -- 61
2019-09-01 08:00:00 15.6 6 Sur 13 Sudeste 0 -- -- 67
2019-09-01 07:00:00 16 5 Sur 9 Sudeste 0 -- -- 67
2019-09-01 06:00:00 16.7 2 Sudeste 9 Norte 0 -- -- 64
2019-09-01 05:00:00 18.5 6 Sudoeste 14 Sudoeste 0 -- -- 56
2019-09-01 04:00:00 19.6 9 Sudoeste 12 Sudoeste 0 -- -- 53
2019-09-01 03:00:00 20.2 8 Sudoeste 16 Sudoeste 0 -- -- 52
2019-09-01 02:00:00 21.8 10 Sudoeste 17 Oeste 0 -- -- 48
2019-09-01 01:00:00 22.4 11 Sudoeste 19 Sur 0 -- -- 46
2019-09-01 00:00:00 22.7 11 Sudoeste 19 Sur 0 -- -- 47
2019-08-31 23:00:00 23.7 6 Sudoeste 12 Sur 0 -- -- 48
2019-08-31 22:00:00 25.9 3 Sudeste 9 Sudeste 0 -- -- 42
2019-08-31 21:00:00 26.9 5 Oeste 13 Sur 0 -- -- 39
2019-08-31 20:00:00 28.2 6 Sur 22 Sudeste 0 -- -- 34
2019-08-31 19:00:00 29 12 Sur 26 Sur 0 -- -- 32
2019-08-31 18:00:00 30.7 6 Sudoeste 15 Sur 0 -- -- 28
2019-08-31 17:00:00 30.7 9 Sudoeste 23 Oeste 0 -- -- 29
2019-08-31 16:00:00 29.9 8 Oeste 17 Noroeste 0 -- -- 30
2019-08-31 15:00:00 29.9 7 Norte 17 Noroeste 0 -- -- 32
2019-08-31 14:00:00 28.7 5 Noroeste 10 Noroeste 0 -- -- 33
2019-08-31 13:00:00 27.7 6 Noroeste 11 Noroeste 0 -- -- 34
2019-08-31 12:00:00 26.3 3 Oeste 10 Oeste 0 -- -- 38
2019-08-31 11:00:00 24.7 8 Oeste 13 Oeste 0 -- -- 40
2019-08-31 10:00:00 22.5 4 Sur 8 Sudoeste 0 -- -- 51
2019-08-31 09:00:00 17.8 4 Sur 12 Oeste 0 -- -- 68
2019-08-31 08:00:00 16.3 0 Calma 8 Sudeste 0 -- -- 69
2019-08-31 07:00:00 17.1 3 Sur 12 Sudeste 0 -- -- 62
2019-08-31 06:00:00 18.4 8 Sur 17 Sur 0 -- -- 58
2019-08-31 05:00:00 19.1 5 Sur 21 Sudeste 0 -- -- 57
2019-08-31 04:00:00 20.1 8 Sudeste 29 Sudeste 0 -- -- 54
2019-08-31 03:00:00 20.6 18 Sur 32 Sur 0 -- -- 52
2019-08-31 02:00:00 19.3 15 Sudeste 23 Sudeste 0 -- -- 56
2019-08-31 01:00:00 18.7 8 Sudeste 18 Sudeste 0 -- -- 63
2019-08-31 00:00:00 19.9 12 Sudeste 19 Sudeste 0 -- -- 57
2019-08-30 23:00:00 19.8 8 Sudeste 18 Este 0 -- -- 61
2019-08-30 22:00:00 20.5 7 Oeste 29 Oeste 0 -- -- 60
2019-08-30 21:00:00 21.8 12 Sudeste 26 Sur 0 -- -- 56
2019-08-30 20:00:00 23.7 12 Sudeste 22 Este 0 -- -- 53
2019-08-30 19:00:00 23 12 Sudoeste 27 Sudoeste 0.4 -- -- 49
2019-08-30 18:00:00 21.2 3 Sur 18 Nordeste 1 -- -- 62
2019-08-30 17:00:00 23.1 12 Este 42 Oeste 0.2 -- -- 55
2019-08-30 16:00:00 26.7 31 Sudoeste 48 Sudoeste 0 -- -- 36
2019-08-30 15:00:00 31.7 9 Sudoeste 22 Sudoeste 0 -- -- 30
2019-08-30 14:00:00 30.8 9 Noroeste 22 Oeste 0 -- -- 30
2019-08-30 13:00:00 31.4 7 Sudoeste 21 Sur 0 -- -- 29
2019-08-30 12:00:00 30.8 8 Sur 18 Sur 0 -- -- 31
2019-08-30 11:00:00 28.6 7 Sur 18 Sur 0 -- -- 37
2019-08-30 10:00:00 24.5 4 Sudoeste 10 Sur 0 -- -- 47
2019-08-30 09:00:00 18.8 4 Nordeste 10 Este 0 -- -- 66
2019-08-30 08:00:00 16.6 3 Este 9 Sudeste 0 -- -- 69
2019-08-30 07:00:00 17.8 7 Sudeste 10 Sudoeste 0 -- -- 62
2019-08-30 06:00:00 18.4 8 Sur 15 Sudoeste 0 -- -- 59
2019-08-30 05:00:00 18.2 8 Sur 16 Sudeste 0 -- -- 61
2019-08-30 04:00:00 18.5 7 Sudeste 14 Sudeste 0 -- -- 58
2019-08-30 03:00:00 18.4 5 Sur 11 Sur 0 -- -- 61
2019-08-30 02:00:00 19.2 4 Sur 9 Sudeste 0 -- -- 58
2019-08-30 01:00:00 20.5 5 Sudeste 16 Sudoeste 0 -- -- 57
2019-08-30 00:00:00 21.8 5 Sur 17 Sur 0 -- -- 47
2019-08-29 23:00:00 23.1 11 Sudoeste 18 Sur 0 -- -- 45
2019-08-29 22:00:00 23.8 11 Sudoeste 21 Sur 0 -- -- 41
2019-08-29 21:00:00 25.4 10 Sur 19 Sudoeste 0 -- -- 38
2019-08-29 20:00:00 27.7 10 Sur 30 Sur 0 -- -- 31
2019-08-29 19:00:00 27.7 16 Sur 42 Sudoeste 0 -- -- 32
2019-08-29 18:00:00 28 20 Sur 46 Sudoeste 0 -- -- 35
2019-08-29 17:00:00 32.1 5 Sudeste 17 Sur 0 -- -- 27
2019-08-29 16:00:00 31.8 4 Sur 21 Oeste 0 -- -- 28
2019-08-29 15:00:00 31.8 6 Norte 19 Sudeste 0 -- -- 28
2019-08-29 14:00:00 30.8 10 Este 23 Sudeste 0 -- -- 30
2019-08-29 13:00:00 30 7 Sur 27 Sur 0 -- -- 32
2019-08-29 12:00:00 28.8 4 Sudoeste 14 Oeste 0 -- -- 35
2019-08-29 11:00:00 27.6 8 Sudoeste 18 Sudeste 0 -- -- 37
2019-08-29 10:00:00 24.2 8 Sur 16 Sur 0 -- -- 46
2019-08-29 09:00:00 18.8 3 Sudoeste 8 Sur 0 -- -- 68
2019-08-29 08:00:00 15.8 4 Sur 10 Sudoeste 0 -- -- 75
2019-08-29 07:00:00 16.3 3 Sur 9 Sur 0 -- -- 71
2019-08-29 06:00:00 16.3 3 Sur 10 Oeste 0 -- -- 74
2019-08-29 05:00:00 17 3 Sur 6 Este 0 -- -- 70
2019-08-29 04:00:00 17.8 3 Sur 9 Sudeste 0 -- -- 66
2019-08-29 03:00:00 18.8 4 Sur 12 Sudeste 0 -- -- 62
2019-08-29 02:00:00 18.9 6 Sur 11 Oeste 0 -- -- 60
2019-08-29 01:00:00 19.5 3 Sur 13 Sudeste 0 -- -- 59
2019-08-29 00:00:00 19.6 6 Sudeste 12 Este 0 -- -- 61
2019-08-28 23:00:00 21 6 Sur 8 Sudoeste 0 -- -- 57
2019-08-28 22:00:00 23.2 3 Sudoeste 5 Sudoeste 0 -- -- 51
2019-08-28 21:00:00 26 3 Norte 12 Sudoeste 0 -- -- 40
2019-08-28 20:00:00 27.5 8 Noroeste 18 Oeste 0 -- -- 35
2019-08-28 19:00:00 28.2 6 Noroeste 24 Oeste 0 -- -- 34
2019-08-28 18:00:00 28.5 6 Norte 17 Oeste 0 -- -- 34
2019-08-28 17:00:00 28.6 8 Norte 20 Norte 0 -- -- 32
2019-08-28 16:00:00 28.4 6 Noroeste 23 Noroeste 0 -- -- 33
2019-08-28 15:00:00 28.2 8 Norte 21 Noroeste 0 -- -- 34
2019-08-28 14:00:00 27.4 4 Sudoeste 15 Oeste 0 -- -- 34
2019-08-28 13:00:00 26.5 7 Noroeste 14 Oeste 0 -- -- 36
2019-08-28 12:00:00 25.8 4 Este 13 Este 0 -- -- 41
2019-08-28 11:00:00 24.3 3 Este 9 Sudeste 0 -- -- 49
2019-08-28 10:00:00 21.1 6 Sudeste 8 Sudeste 0 -- -- 62
2019-08-28 09:00:00 16.8 4 Sudeste 9 Sudeste 0 -- -- 75
2019-08-28 08:00:00 13.8 0 Calma 8 Sudeste 0 -- -- 82
2019-08-28 07:00:00 13.6 3 Sur 5 Sur 0 -- -- 82
2019-08-28 06:00:00 13.8 2 Sudeste 5 Sudeste 0 -- -- 81
2019-08-28 05:00:00 14.5 3 Sudeste 7 Sudeste 0 -- -- 79
2019-08-28 04:00:00 15.3 5 Sudeste 11 Sur 0 -- -- 76
2019-08-28 03:00:00 16 3 Sur 15 Sudoeste 0 -- -- 74
2019-08-28 02:00:00 16.1 6 Sur 10 Sur 0 -- -- 74
2019-08-28 01:00:00 16.5 7 Sur 13 Sur 0 -- -- 74
2019-08-28 00:00:00 17 6 Sur 10 Sudoeste 0 -- -- 72
2019-08-27 23:00:00 18.4 4 Sur 7 Sudeste 0 -- -- 70
2019-08-27 22:00:00 19.9 4 Sur 9 Noroeste 0 -- -- 62
2019-08-27 21:00:00 21.8 8 Oeste 17 Oeste 0 -- -- 56
2019-08-27 20:00:00 23.5 10 Noroeste 22 Noroeste 0 -- -- 48
2019-08-27 19:00:00 24.3 9 Noroeste 20 Oeste 0 -- -- 45
2019-08-27 18:00:00 24.3 9 Noroeste 23 Oeste 0 -- -- 45
2019-08-27 17:00:00 24.2 9 Oeste 25 Oeste 0 -- -- 47
2019-08-27 16:00:00 23.8 10 Oeste 21 Noroeste 0 -- -- 49
2019-08-27 15:00:00 23.4 13 Noroeste 23 Oeste 0 -- -- 51
2019-08-27 14:00:00 22 15 Oeste 26 Oeste 0 -- -- 58
2019-08-27 13:00:00 21 12 Oeste 24 Oeste 0 -- -- 63
2019-08-27 12:00:00 20 12 Oeste 23 Oeste 0 -- -- 66
2019-08-27 11:00:00 18.6 13 Oeste 21 Oeste 0 -- -- 73
2019-08-27 10:00:00 17.4 12 Oeste 18 Oeste 0 -- -- 76
2019-08-27 09:00:00 14.8 4 Sur 12 Sudoeste 0 -- -- 80
2019-08-27 08:00:00 13 5 Sur 12 Sur 0 -- -- 83
2019-08-27 07:00:00 13.6 5 Sur 15 Sur 0 -- -- 81
2019-08-27 06:00:00 14.4 2 Sudeste 18 Sur 0 -- -- 77
2019-08-27 05:00:00 15.3 11 Sudoeste 19 Sur 0 -- -- 73
2019-08-27 04:00:00 15.5 8 Sudoeste 19 Sur 0 -- -- 73
2019-08-27 03:00:00 15.6 9 Sur 22 Sudoeste 0 -- -- 74
2019-08-27 02:00:00 15.7 15 Sudoeste 24 Sudoeste 0 -- -- 76
2019-08-27 01:00:00 16.4 11 Sudeste 17 Sudeste 0 -- -- 71
2019-08-27 00:00:00 16.1 11 Sudeste 17 Sudeste 0 -- -- 77
2019-08-26 23:00:00 15.8 10 Sudeste 27 Sudeste 0 -- -- 78
2019-08-26 22:00:00 16.4 16 Sudeste 30 Sudeste 0 -- -- 76
2019-08-26 21:00:00 17.2 6 Este 16 Este 0 -- -- 70
2019-08-26 20:00:00 16.7 12 Este 18 Oeste 0 -- -- 74
2019-08-26 19:00:00 16.5 18 Oeste 38 Sudoeste 0 -- -- 78
2019-08-26 18:00:00 16.8 26 Oeste 60 Oeste 0 -- -- 80
2019-08-26 17:00:00 21.4 15 Sudoeste 49 Oeste 0 -- -- 66
2019-08-26 16:00:00 23.9 11 Norte 21 Nordeste 0 -- -- 58
2019-08-26 15:00:00 22.7 8 Noroeste 24 Oeste 0 -- -- 64
2019-08-26 14:00:00 23.9 11 Sur 23 Sudeste 0.2 -- -- 56
2019-08-26 13:00:00 22.2 10 Sudeste 23 Sudeste 0 -- -- 62
2019-08-26 12:00:00 19.4 12 Sudeste 21 Sudeste 0 -- -- 77
2019-08-26 11:00:00 16.8 11 Este 20 Sudeste 0 -- -- 87
2019-08-26 10:00:00 15.3 3 Este 10 Este 0 -- -- 92
2019-08-26 09:00:00 14.7 7 Sudeste 18 Este 0 -- -- 94
2019-08-26 08:00:00 14.3 9 Nordeste 31 Oeste 8.2 -- -- 96
2019-08-26 07:00:00 15.5 22 Oeste 35 Oeste 6.2 -- -- 92
2019-08-26 06:00:00 15.9 21 Nordeste 31 Este 1.2 -- -- 92
2019-08-26 05:00:00 16.1 11 Sudeste 21 Este 0 -- -- 92
2019-08-26 04:00:00 15.9 13 Este 23 Nordeste 0 -- -- 93
2019-08-26 03:00:00 16.4 14 Nordeste 22 Nordeste 0 -- -- 90
2019-08-26 02:00:00 17.1 9 Oeste 14 Este 1.2 -- -- 89
2019-08-26 01:00:00 17.5 4 Nordeste 9 Sur 2 -- -- 85
2019-08-26 00:00:00 17.8 3 Sur 13 Sur 2.4 -- -- 84
2019-08-25 23:00:00 18.4 7 Sudoeste 44 Norte 0.6 -- -- 77
2019-08-25 22:00:00 21.1 27 Norte 44 Noroeste 0 -- -- 60
2019-08-25 21:00:00 25 10 Noroeste 27 Oeste 0 -- -- 37
2019-08-25 20:00:00 26.8 5 Sudoeste 20 Oeste 0 -- -- 33
2019-08-25 19:00:00 27.6 12 Oeste 28 Oeste 0 -- -- 31
2019-08-25 18:00:00 28.2 14 Oeste 34 Oeste 0 -- -- 34
2019-08-25 17:00:00 32 17 Sur 43 Sudeste 0 -- -- 23
2019-08-25 16:00:00 31.9 21 Sur 39 Sudeste 0 -- -- 20
2019-08-25 15:00:00 31.4 23 Sudeste 41 Sur 0 -- -- 22
2019-08-25 14:00:00 31.8 15 Sur 41 Sur 0 -- -- 24
2019-08-25 13:00:00 30.8 23 Sur 41 Sur 0 -- -- 24
2019-08-25 12:00:00 29.4 21 Sudeste 40 Sudeste 0 -- -- 30
2019-08-25 11:00:00 27 20 Sudeste 32 Sudeste 0 -- -- 35
2019-08-25 10:00:00 26.1 20 Sudeste 36 Sudeste 0 -- -- 37
2019-08-25 09:00:00 23.1 22 Sudeste 35 Sur 0 -- -- 44
2019-08-25 08:00:00 21.7 18 Sudeste 35 Sudeste 0 -- -- 46
2019-08-25 07:00:00 21.7 16 Sudeste 32 Sudeste 0 -- -- 44
2019-08-25 06:00:00 22.4 12 Sur 28 Sur 0 -- -- 38
2019-08-25 05:00:00 21.7 3 Norte 18 Este 0 -- -- 34
2019-08-25 04:00:00 21.3 6 Norte 18 Sudoeste 0 -- -- 35
2019-08-25 03:00:00 22.1 10 Sudoeste 17 Sur 0 -- -- 34
2019-08-25 02:00:00 22.5 4 Sur 21 Sudoeste 0 -- -- 33
2019-08-25 01:00:00 24.1 11 Sudoeste 19 Sudoeste 0 -- -- 31
2019-08-25 00:00:00 23.1 4 Sudoeste 18 Sudeste 0 -- -- 32
2019-08-24 23:00:00 25.5 12 Sudeste 18 Sudeste 0 -- -- 28
2019-08-24 22:00:00 25.9 6 Este 9 Norte 0 -- -- 27
2019-08-24 21:00:00 28.3 6 Norte 12 Norte 0 -- -- 24
2019-08-24 20:00:00 30.4 7 Noroeste 19 Noroeste 0 -- -- 23
2019-08-24 19:00:00 31.6 11 Noroeste 25 Noroeste 0 -- -- 22
2019-08-24 18:00:00 32.7 5 Sur 26 Noroeste 0 -- -- 21
2019-08-24 17:00:00 33 5 Sudeste 30 Oeste 0 -- -- 20
2019-08-24 16:00:00 33.4 7 Oeste 22 Oeste 0 -- -- 21
2019-08-24 15:00:00 32.4 5 Oeste 24 Oeste 0 -- -- 22
2019-08-24 14:00:00 30.2 10 Noroeste 20 Noroeste 0 -- -- 24
2019-08-24 13:00:00 31.1 6 Sudeste 17 Noroeste 0 -- -- 23
2019-08-24 12:00:00 30.4 4 Oeste 17 Sudeste 0 -- -- 25
2019-08-24 11:00:00 29 7 Sur 21 Sudeste 0 -- -- 26
2019-08-24 10:00:00 25.8 12 Sur 23 Sur 0 -- -- 30
2019-08-24 09:00:00 21.8 6 Sur 14 Sudeste 0 -- -- 35
2019-08-24 08:00:00 17 5 Sudeste 9 Sur 0 -- -- 43
2019-08-24 07:00:00 17.7 5 Sur 10 Sudeste 0 -- -- 42
2019-08-24 06:00:00 18.7 4 Noroeste 18 Noroeste 0 -- -- 40
2019-08-24 05:00:00 18.5 5 Sur 11 Sudoeste 0 -- -- 40
2019-08-24 04:00:00 18.7 4 Sur 10 Sudeste 0 -- -- 39
2019-08-24 03:00:00 18.4 4 Sur 10 Sudeste 0 -- -- 39
2019-08-24 02:00:00 19.4 6 Sudeste 9 Sur 0 -- -- 36
2019-08-24 01:00:00 20.8 5 Sur 13 Sudeste 0 -- -- 33
2019-08-24 00:00:00 23.2 12 Sudeste 18 Sudeste 0 -- -- 30
2019-08-23 23:00:00 24.8 13 Sudeste 18 Sudeste 0 -- -- 28
2019-08-23 22:00:00 24.5 0 Calma 7 Noroeste 0 -- -- 26
2019-08-23 21:00:00 27.8 7 Norte 17 Norte 0 -- -- 21
2019-08-23 20:00:00 29.8 12 Norte 22 Noroeste 0 -- -- 20
2019-08-23 19:00:00 30.5 6 Este 26 Noroeste 0 -- -- 20
2019-08-23 18:00:00 31.1 15 Noroeste 29 Oeste 0 -- -- 20
2019-08-23 17:00:00 32 5 Sudoeste 19 Sudoeste 0 -- -- 21
2019-08-23 16:00:00 31.2 5 Este 18 Sudoeste 0 -- -- 22
2019-08-23 15:00:00 30.8 12 Sudeste 20 Sudeste 0 -- -- 22
2019-08-23 14:00:00 30.1 8 Este 21 Sur 0 -- -- 23
2019-08-23 13:00:00 29.5 13 Sudeste 30 Sur 0 -- -- 24
2019-08-23 12:00:00 28.3 17 Sur 39 Sur 0 -- -- 28
2019-08-23 11:00:00 25.9 24 Sur 41 Sudeste 0 -- -- 32
2019-08-23 10:00:00 23.7 24 Sudeste 41 Sudeste 0 -- -- 37
2019-08-23 09:00:00 21.6 24 Sudeste 39 Sudeste 0 -- -- 45
2019-08-23 08:00:00 20.2 24 Sudeste 38 Sudeste 0 -- -- 51
2019-08-23 07:00:00 20.1 21 Sudeste 35 Sudeste 0 -- -- 50
2019-08-23 06:00:00 20.1 22 Sudeste 34 Sudeste 0 -- -- 37
2019-08-23 05:00:00 16.7 14 Sudeste 22 Sudeste 0 -- -- 30
2019-08-23 04:00:00 15.5 7 Sudeste 14 Sur 0 -- -- 26
2019-08-23 03:00:00 14.7 4 Sudeste 13 Sudoeste 0 -- -- 27
2019-08-23 02:00:00 15.6 4 Sur 12 Sudoeste 0 -- -- 25
2019-08-23 01:00:00 16.5 9 Sudoeste 14 Sudoeste 0 -- -- 25
2019-08-23 00:00:00 16.6 8 Sudoeste 13 Sudoeste 0 -- -- 26
2019-08-22 23:00:00 18.8 4 Sur 7 Nordeste 0 -- -- 24
2019-08-22 22:00:00 23 5 Nordeste 10 Norte 0 -- -- 20
2019-08-22 21:00:00 25.9 6 Norte 18 Noroeste 0 -- -- 19
2019-08-22 20:00:00 28.1 13 Norte 21 Noroeste 0 -- -- 19
2019-08-22 19:00:00 28.8 12 Norte 21 Nordeste 0 -- -- 19
2019-08-22 18:00:00 29.1 12 Nordeste 21 Norte 0 -- -- 19
2019-08-22 17:00:00 29.1 8 Norte 24 Nordeste 0 -- -- 23
2019-08-22 16:00:00 29.4 5 Noroeste 24 Nordeste 0 -- -- 23
2019-08-22 15:00:00 28.4 14 Norte 28 Norte 0 -- -- 24
2019-08-22 14:00:00 27.4 13 Nordeste 31 Norte 0 -- -- 26
2019-08-22 13:00:00 27.2 14 Nordeste 27 Norte 0 -- -- 32
2019-08-22 12:00:00 25.8 9 Nordeste 17 Este 0 -- -- 39
2019-08-22 11:00:00 23.4 7 Nordeste 15 Nordeste 0 -- -- 49
2019-08-22 10:00:00 21.8 8 Sudeste 13 Sudeste 0 -- -- 56
2019-08-22 09:00:00 16.9 4 Nordeste 8 Sudoeste 0 -- -- 74
2019-08-22 08:00:00 15.1 2 Sur 9 Sudeste 0 -- -- 76
2019-08-22 07:00:00 14.9 5 Sudeste 14 Este 0 -- -- 82
2019-08-22 06:00:00 16.6 8 Sudeste 14 Sudeste 0 -- -- 77
2019-08-22 05:00:00 17.9 7 Sudeste 14 Sur 0 -- -- 72
2019-08-22 04:00:00 19 9 Sur 24 Sudeste 0 -- -- 71
2019-08-22 03:00:00 19.3 13 Sur 26 Sudeste 0 -- -- 73
2019-08-22 02:00:00 19.8 14 Sudeste 23 Sudeste 0 -- -- 72
2019-08-22 01:00:00 19.2 10 Sudeste 23 Sudeste 0 -- -- 53
2019-08-22 00:00:00 18.4 6 Este 12 Este 0 -- -- 54
2019-08-21 23:00:00 19.2 6 Sudoeste 13 Sudoeste 0 -- -- 49
2019-08-21 22:00:00 20.5 6 Sudoeste 9 Sudoeste 0 -- -- 43
2019-08-21 21:00:00 23.8 4 Sudoeste 10 Oeste 0 -- -- 38
2019-08-21 20:00:00 24.3 11 Oeste 24 Oeste 0 -- -- 39
2019-08-21 19:00:00 23 17 Oeste 26 Oeste 0 -- -- 42
2019-08-21 18:00:00 24.7 11 Sudoeste 21 Sudeste 0 -- -- 47
2019-08-21 17:00:00 25.4 8 Este 29 Nordeste 0 -- -- 36
2019-08-21 16:00:00 27.2 28 Nordeste 38 Nordeste 0 -- -- 39
2019-08-21 15:00:00 27.6 7 Sudeste 26 Sudeste 0 -- -- 41
2019-08-21 14:00:00 26.6 9 Sur 22 Sudeste 0 -- -- 47
2019-08-21 13:00:00 25.8 14 Sudeste 26 Sudeste 0 -- -- 48
2019-08-21 12:00:00 25.5 15 Sudeste 27 Sudeste 0 -- -- 52
2019-08-21 11:00:00 23.4 18 Sudeste 31 Sudeste 0 -- -- 59
2019-08-21 10:00:00 20.8 22 Sudeste 37 Sudeste 0 -- -- 70
2019-08-21 09:00:00 19 13 Sudeste 28 Sur 0 -- -- 77
2019-08-21 08:00:00 18 17 Sudeste 35 Sudeste 0 -- -- 77
2019-08-21 07:00:00 18.4 20 Sudeste 36 Sudeste 0 -- -- 74
2019-08-21 06:00:00 13.2 0 Calma 4 Nordeste 0 -- -- 71
2019-08-21 05:00:00 12.8 3 Norte 5 Noroeste 0 -- -- 66
2019-08-21 04:00:00 12.9 0 Calma 6 Sur 0 -- -- 63
2019-08-21 03:00:00 13.9 4 Sudoeste 6 Sudoeste 0 -- -- 61
2019-08-21 02:00:00 14.7 5 Sudoeste 6 Sur 0 -- -- 59
2019-08-21 01:00:00 16.2 4 Este 10 Norte 0 -- -- 59
2019-08-21 00:00:00 17.9 8 Norte 14 Nordeste 0 -- -- 54